createdAt,value
2023-03-12T00:00:25.554Z,14.22
2023-03-12T00:02:54.217Z,14.17
2023-03-12T00:05:22.921Z,14.11
2023-03-12T00:07:49.302Z,14.06
2023-03-12T00:10:17.080Z,14.00
2023-03-12T00:12:43.453Z,13.94
2023-03-12T00:15:09.865Z,13.89
2023-03-12T00:17:36.308Z,13.84
2023-03-12T00:20:02.718Z,13.79
2023-03-12T00:22:29.131Z,13.75
2023-03-12T00:24:55.540Z,13.68
2023-03-12T00:27:21.972Z,13.64
2023-03-12T00:29:48.434Z,13.59
2023-03-12T00:32:14.955Z,13.54
2023-03-12T00:34:41.573Z,13.50
2023-03-12T00:37:08.030Z,13.46
2023-03-12T00:39:35.396Z,13.40
2023-03-12T00:42:02.046Z,13.36
2023-03-12T00:44:28.635Z,13.31
2023-03-12T00:46:55.503Z,13.28
2023-03-12T00:49:22.038Z,13.25
2023-03-12T00:51:48.509Z,13.23
2023-03-12T00:54:14.930Z,13.21
2023-03-12T00:56:41.370Z,13.17
2023-03-12T00:59:08.967Z,13.13
2023-03-12T01:01:35.712Z,13.08
2023-03-12T01:04:02.316Z,13.04
2023-03-12T01:06:30.555Z,12.99
2023-03-12T01:08:56.999Z,12.95
2023-03-12T01:11:25.790Z,12.90
2023-03-12T01:13:53.486Z,12.88
2023-03-12T01:16:19.979Z,12.84
2023-03-12T01:18:49.926Z,12.80
2023-03-12T01:21:16.480Z,12.77
2023-03-12T01:23:45.257Z,12.75
2023-03-12T01:26:11.660Z,12.73
2023-03-12T01:28:38.128Z,12.71
2023-03-12T01:31:04.678Z,12.68
2023-03-12T01:33:31.111Z,12.66
2023-03-12T01:35:57.824Z,12.62
2023-03-12T01:38:26.533Z,12.59
2023-03-12T01:40:54.006Z,12.55
2023-03-12T01:43:20.381Z,12.53
2023-03-12T01:45:46.908Z,12.50
2023-03-12T01:48:13.757Z,12.45
2023-03-12T01:50:40.264Z,12.42
2023-03-12T01:53:09.288Z,12.39
2023-03-12T01:55:35.750Z,12.37
2023-03-12T01:58:04.692Z,12.35
2023-03-12T02:00:33.348Z,12.32
2023-03-12T02:02:59.722Z,12.30
2023-03-12T02:05:26.206Z,12.27
2023-03-12T02:07:52.552Z,12.25
2023-03-12T02:10:18.903Z,12.23
2023-03-12T02:12:45.255Z,12.21
2023-03-12T02:15:11.689Z,12.20
2023-03-12T02:17:38.125Z,12.19
2023-03-12T02:20:04.517Z,12.17
2023-03-12T02:22:30.994Z,12.14
2023-03-12T02:24:57.376Z,12.12
2023-03-12T02:27:23.705Z,12.11
2023-03-12T02:29:49.995Z,12.08
2023-03-12T02:32:16.454Z,12.06
2023-03-12T02:34:42.934Z,12.05
2023-03-12T02:37:09.456Z,12.04
2023-03-12T02:39:35.780Z,12.01
2023-03-12T02:42:02.241Z,12.00
2023-03-12T02:44:28.577Z,11.98
2023-03-12T02:46:54.980Z,11.96
2023-03-12T02:49:21.358Z,11.93
2023-03-12T02:51:47.677Z,11.90
2023-03-12T02:54:14.049Z,11.88
2023-03-12T02:56:40.504Z,11.84
2023-03-12T02:59:10.497Z,11.82
2023-03-12T03:01:37.500Z,11.79
2023-03-12T03:04:04.179Z,11.77
2023-03-12T03:06:33.642Z,11.75
2023-03-12T03:09:00.152Z,11.72
2023-03-12T03:11:26.534Z,11.70
2023-03-12T03:13:52.906Z,11.67
2023-03-12T03:16:19.342Z,11.64
2023-03-12T03:21:29.960Z,11.60
2023-03-12T03:23:56.516Z,11.58
2023-03-12T03:26:23.076Z,11.56
2023-03-12T03:28:49.583Z,11.53
2023-03-12T03:31:16.761Z,11.51
2023-03-12T03:33:43.210Z,11.49
2023-03-12T03:36:09.887Z,11.47
2023-03-12T03:38:38.427Z,11.45
2023-03-12T03:41:04.970Z,11.44
2023-03-12T03:43:31.484Z,11.43
2023-03-12T03:45:58.028Z,11.42
2023-03-12T03:48:27.061Z,11.41
2023-03-12T03:50:53.555Z,11.40
2023-03-12T03:53:20.121Z,11.38
2023-03-12T03:55:48.847Z,11.34
2023-03-12T03:58:15.308Z,11.30
2023-03-12T04:00:41.782Z,11.28
2023-03-12T04:03:11.231Z,11.25
2023-03-12T04:05:37.778Z,11.21
2023-03-12T04:08:04.228Z,11.18
2023-03-12T04:10:30.725Z,11.16
2023-03-12T04:12:57.179Z,11.13
2023-03-12T04:15:23.394Z,11.10
2023-03-12T04:17:49.863Z,11.07
2023-03-12T04:20:18.752Z,11.03
2023-03-12T04:22:45.097Z,11.02
2023-03-12T04:25:15.092Z,10.99
2023-03-12T04:27:42.969Z,10.97
2023-03-12T04:30:11.410Z,10.95
2023-03-12T04:32:37.971Z,10.93
2023-03-12T04:35:04.408Z,10.90
2023-03-12T04:37:30.747Z,10.87
2023-03-12T04:39:57.281Z,10.86
2023-03-12T04:42:23.699Z,10.85
2023-03-12T04:44:51.350Z,10.83
2023-03-12T04:47:17.789Z,10.80
2023-03-12T04:49:44.152Z,10.79
2023-03-12T04:52:10.566Z,10.79
2023-03-12T04:54:37.059Z,10.77
2023-03-12T04:57:03.468Z,10.76
2023-03-12T04:59:29.929Z,10.74
2023-03-12T05:01:56.381Z,10.71
2023-03-12T05:04:22.832Z,10.68
2023-03-12T05:06:49.240Z,10.67
2023-03-12T05:09:19.639Z,10.64
2023-03-12T05:11:46.324Z,10.62
2023-03-12T05:14:12.870Z,10.59
2023-03-12T05:16:39.546Z,10.57
2023-03-12T05:19:09.644Z,10.56
2023-03-12T05:21:36.047Z,10.55
2023-03-12T05:24:02.452Z,10.53
2023-03-12T05:26:28.823Z,10.53
2023-03-12T05:28:55.237Z,10.52
2023-03-12T05:31:21.607Z,10.51
2023-03-12T05:33:48.622Z,10.49
2023-03-12T05:36:16.218Z,10.46
2023-03-12T05:38:42.647Z,10.45
2023-03-12T05:41:10.348Z,10.44
2023-03-12T05:43:36.709Z,10.42
2023-03-12T05:46:04.637Z,10.41
2023-03-12T05:48:32.116Z,10.41
2023-03-12T05:50:58.560Z,10.39
2023-03-12T05:53:30.209Z,10.38
2023-03-12T05:55:56.545Z,10.37
2023-03-12T06:01:30.852Z,10.33
2023-03-12T06:03:57.387Z,10.32
2023-03-12T06:06:23.768Z,10.32
2023-03-12T06:11:40.244Z,10.26
2023-03-12T06:14:06.781Z,10.26
2023-03-12T06:16:33.118Z,10.25
2023-03-12T06:18:59.564Z,10.23
2023-03-12T06:21:25.953Z,10.22
2023-03-12T06:23:52.322Z,10.23
2023-03-12T06:26:18.645Z,10.24
2023-03-12T06:28:47.181Z,10.24
2023-03-12T06:31:13.778Z,10.22
2023-03-12T06:33:40.233Z,10.27
2023-03-12T06:36:06.683Z,10.30
2023-03-12T06:38:33.074Z,10.30
2023-03-12T06:40:59.410Z,10.33
2023-03-12T06:43:25.766Z,10.38
2023-03-12T06:45:52.471Z,10.43
2023-03-12T06:48:18.865Z,10.47
2023-03-12T06:50:48.230Z,10.53
2023-03-12T06:53:14.537Z,10.68
2023-03-12T06:55:40.833Z,10.78
2023-03-12T06:58:07.088Z,11.02
2023-03-12T07:00:34.034Z,11.60
2023-03-12T07:03:00.426Z,12.13
2023-03-12T07:05:29.520Z,12.66
2023-03-12T07:07:56.470Z,13.19
2023-03-12T07:10:22.784Z,13.57
2023-03-12T07:12:49.097Z,13.79
2023-03-12T07:15:15.391Z,13.99
2023-03-12T07:17:42.074Z,14.22
2023-03-12T07:20:08.533Z,14.46
2023-03-12T07:22:37.961Z,14.65
2023-03-12T07:25:04.351Z,14.89
2023-03-12T07:27:30.856Z,15.10
2023-03-12T07:29:57.348Z,15.31
2023-03-12T07:32:23.768Z,15.56
2023-03-12T07:34:50.197Z,15.74
2023-03-12T07:37:16.512Z,15.97
2023-03-12T07:39:42.858Z,16.16
2023-03-12T07:42:09.242Z,16.34
2023-03-12T07:44:35.595Z,16.50
2023-03-12T07:47:12.955Z,16.63
2023-03-12T07:49:48.342Z,16.72
2023-03-12T07:52:14.763Z,16.83
2023-03-12T07:54:41.339Z,16.94
2023-03-12T07:57:07.792Z,17.05
2023-03-12T07:59:34.297Z,17.17
2023-03-12T08:02:00.730Z,17.33
2023-03-12T08:04:27.402Z,17.54
2023-03-12T08:06:54.232Z,17.75
2023-03-12T08:09:20.527Z,17.92
2023-03-12T08:11:46.884Z,18.07
2023-03-12T08:14:13.243Z,18.21
2023-03-12T08:16:39.620Z,18.28
2023-03-12T08:19:09.083Z,18.33
2023-03-12T08:21:36.036Z,18.36
2023-03-12T08:24:02.375Z,18.36
2023-03-12T08:26:28.971Z,18.34
2023-03-12T08:28:55.362Z,18.34
2023-03-12T08:31:21.840Z,18.30
2023-03-12T08:33:48.150Z,18.27
2023-03-12T08:36:14.441Z,18.23
2023-03-12T08:38:40.719Z,18.24
2023-03-12T08:41:07.034Z,18.29
2023-03-12T08:43:33.572Z,18.33
2023-03-12T08:45:59.965Z,18.37
2023-03-12T08:48:26.341Z,18.37
2023-03-12T08:50:52.679Z,18.31
2023-03-12T08:53:18.994Z,18.27
2023-03-12T08:55:45.282Z,18.22
2023-03-12T08:58:11.605Z,18.19
2023-03-12T09:00:37.976Z,18.15
2023-03-12T09:03:04.354Z,18.08
2023-03-12T09:05:30.711Z,18.06
2023-03-12T09:07:57.004Z,18.05
2023-03-12T09:10:23.439Z,18.04
2023-03-12T09:12:49.767Z,18.02
2023-03-12T09:15:16.480Z,18.04
2023-03-12T09:17:42.876Z,18.01
2023-03-12T09:20:09.198Z,17.98
2023-03-12T09:22:35.661Z,17.98
2023-03-12T09:25:01.915Z,18.00
2023-03-12T09:27:28.268Z,18.02
2023-03-12T09:30:00.280Z,18.03
2023-03-12T09:32:27.419Z,18.06
2023-03-12T09:34:53.804Z,18.10
2023-03-12T09:37:23.611Z,18.11
2023-03-12T09:39:50.321Z,18.11
2023-03-12T09:42:17.057Z,18.08
2023-03-12T09:44:48.755Z,18.06
2023-03-12T09:47:25.991Z,18.11
2023-03-12T09:52:57.033Z,18.17
2023-03-12T09:55:23.571Z,18.16
2023-03-12T09:57:49.990Z,18.13
2023-03-12T10:00:16.732Z,18.09
2023-03-12T10:02:43.140Z,18.08
2023-03-12T10:05:09.604Z,18.06
2023-03-12T10:07:36.086Z,18.05
2023-03-12T10:10:02.526Z,18.07
2023-03-12T10:12:28.785Z,18.11
2023-03-12T10:14:55.045Z,18.21
2023-03-12T10:17:21.337Z,18.31
2023-03-12T10:19:48.595Z,18.38
2023-03-12T10:22:15.010Z,18.41
2023-03-12T10:24:41.375Z,18.47
2023-03-12T10:27:07.746Z,18.62
2023-03-12T10:35:27.858Z,19.04
2023-03-12T10:37:55.208Z,19.17
2023-03-12T10:40:25.723Z,19.27
2023-03-12T10:42:55.251Z,19.35
2023-03-12T10:45:21.647Z,19.40
2023-03-12T10:47:48.037Z,19.44
2023-03-12T10:50:14.395Z,19.42
2023-03-12T10:52:40.816Z,19.40
2023-03-12T10:55:07.313Z,19.36
2023-03-12T10:57:33.623Z,19.33
2023-03-12T11:00:00.149Z,19.26
2023-03-12T11:02:26.470Z,19.20
2023-03-12T11:04:52.785Z,19.16
2023-03-12T11:07:19.719Z,19.12
2023-03-12T11:09:46.033Z,19.08
2023-03-12T11:12:12.298Z,19.06
2023-03-12T11:14:39.675Z,19.04
2023-03-12T11:17:06.358Z,19.02
2023-03-12T11:19:34.622Z,18.97
2023-03-12T11:22:03.999Z,18.93
2023-03-12T11:24:30.425Z,18.82
2023-03-12T11:26:56.844Z,18.74
2023-03-12T11:29:23.194Z,18.67
2023-03-12T11:31:49.664Z,18.58
2023-03-12T11:34:16.091Z,18.49
2023-03-12T11:36:42.577Z,18.43
2023-03-12T11:39:08.956Z,18.36
2023-03-12T11:41:35.315Z,18.28
2023-03-12T11:44:01.607Z,18.20
2023-03-12T11:46:27.916Z,18.14
2023-03-12T11:48:54.402Z,18.10
2023-03-12T11:51:20.913Z,18.06
2023-03-12T11:53:47.360Z,18.03
2023-03-12T11:56:13.924Z,18.01
2023-03-12T11:58:41.387Z,17.97
2023-03-12T12:01:07.844Z,17.93
2023-03-12T12:03:34.480Z,17.89
2023-03-12T12:06:00.997Z,17.87
2023-03-12T12:08:27.271Z,17.86
2023-03-12T12:10:53.688Z,17.86
2023-03-12T12:13:20.040Z,17.95
2023-03-12T12:15:46.488Z,18.08
2023-03-12T12:18:13.233Z,18.20
2023-03-12T12:20:39.528Z,18.36
2023-03-12T12:23:06.326Z,18.51
2023-03-12T12:25:32.681Z,18.68
2023-03-12T12:27:59.277Z,18.85
2023-03-12T12:30:25.688Z,19.04
2023-03-12T12:32:52.096Z,19.23
2023-03-12T12:35:18.450Z,19.39
2023-03-12T12:37:44.930Z,19.54
2023-03-12T12:40:11.383Z,19.73
2023-03-12T12:42:37.895Z,19.88
2023-03-12T12:45:04.302Z,20.01
2023-03-12T12:47:30.804Z,20.12
2023-03-12T12:49:57.146Z,20.19
2023-03-12T12:52:23.497Z,20.26
2023-03-12T12:54:50.956Z,20.27
2023-03-12T12:57:17.298Z,20.30
2023-03-12T12:59:43.695Z,20.32
2023-03-12T13:02:10.042Z,20.32
2023-03-12T13:04:36.367Z,20.26
2023-03-12T13:07:02.926Z,20.23
2023-03-12T13:09:29.247Z,20.17
2023-03-12T13:11:55.559Z,20.10
2023-03-12T13:14:21.824Z,20.01
2023-03-12T13:16:48.228Z,19.90
2023-03-12T13:19:14.683Z,19.79
2023-03-12T13:21:41.070Z,19.72
2023-03-12T13:24:07.684Z,19.65
2023-03-12T13:26:34.096Z,19.61
2023-03-12T13:29:11.993Z,19.58
2023-03-12T13:31:39.186Z,19.52
2023-03-12T13:34:05.498Z,19.48
2023-03-12T13:36:31.841Z,19.43
2023-03-12T13:39:00.576Z,19.37
2023-03-12T13:41:26.874Z,19.31
2023-03-12T13:43:54.634Z,19.28
2023-03-12T13:46:21.227Z,19.24
2023-03-12T13:48:47.738Z,19.21
2023-03-12T13:51:14.185Z,19.17
2023-03-12T13:53:40.880Z,19.13
2023-03-12T13:56:07.188Z,19.10
2023-03-12T13:58:33.451Z,19.05
2023-03-12T14:01:00.008Z,19.04
2023-03-12T14:03:26.296Z,19.00
2023-03-12T14:05:53.262Z,18.98
2023-03-12T14:08:19.549Z,18.96
2023-03-12T14:10:45.868Z,18.94
2023-03-12T14:13:12.380Z,18.91
2023-03-12T14:15:39.964Z,18.90
2023-03-12T14:18:06.426Z,18.89
2023-03-12T14:20:32.955Z,18.89
2023-03-12T14:22:59.464Z,18.89
2023-03-12T14:25:25.855Z,18.87
2023-03-12T14:27:52.174Z,18.86
2023-03-12T14:30:18.549Z,18.84
2023-03-12T14:32:44.880Z,18.83
2023-03-12T14:35:11.176Z,18.81
2023-03-12T14:37:38.124Z,18.79
2023-03-12T14:40:04.562Z,18.76
2023-03-12T14:42:30.900Z,18.74
2023-03-12T14:44:57.382Z,18.72
2023-03-12T14:47:23.718Z,18.71
2023-03-12T14:49:50.082Z,18.72
2023-03-12T14:52:16.559Z,18.74
2023-03-12T14:54:42.986Z,18.79
2023-03-12T14:57:09.479Z,18.91
2023-03-12T14:59:35.797Z,19.03
2023-03-12T15:02:02.239Z,19.17
2023-03-12T15:04:28.760Z,19.35
2023-03-12T15:06:55.162Z,19.46
2023-03-12T15:09:21.625Z,19.53
2023-03-12T15:11:47.959Z,19.59
2023-03-12T15:14:14.255Z,19.68
2023-03-12T15:16:40.525Z,19.80
2023-03-12T15:19:06.859Z,19.90
2023-03-12T15:21:33.218Z,20.02
2023-03-12T15:23:59.563Z,20.15
2023-03-12T15:26:25.841Z,20.26
2023-03-12T15:28:52.140Z,20.39
2023-03-12T15:31:18.537Z,20.53
2023-03-12T15:33:44.876Z,20.68
2023-03-12T15:36:11.510Z,20.80
2023-03-12T15:38:37.782Z,20.90
2023-03-12T15:41:04.020Z,20.99
2023-03-12T15:43:30.291Z,21.07
2023-03-12T15:45:56.649Z,21.17
2023-03-12T15:48:23.003Z,21.26
2023-03-12T15:50:49.346Z,21.31
2023-03-12T15:53:15.698Z,21.34
2023-03-12T15:55:43.191Z,21.34
2023-03-12T15:58:09.563Z,21.35
2023-03-12T16:00:35.872Z,21.35
2023-03-12T16:03:02.275Z,21.37
2023-03-12T16:05:28.720Z,21.37
2023-03-12T16:07:55.037Z,21.42
2023-03-12T16:10:21.644Z,21.50
2023-03-12T16:12:48.062Z,21.61
2023-03-12T16:15:14.590Z,21.67
2023-03-12T16:17:40.946Z,21.77
2023-03-12T16:20:07.263Z,21.86
2023-03-12T16:22:33.593Z,21.91
2023-03-12T16:24:59.916Z,21.96
2023-03-12T16:27:32.579Z,22.00
2023-03-12T16:29:59.384Z,22.06
2023-03-12T16:32:26.203Z,22.12
2023-03-12T16:34:52.613Z,22.16
2023-03-12T16:37:18.937Z,22.20
2023-03-12T16:39:45.392Z,22.29
2023-03-12T16:42:12.052Z,22.37
2023-03-12T16:44:38.391Z,22.43
2023-03-12T16:47:04.797Z,22.48
2023-03-12T16:49:31.251Z,22.51
2023-03-12T16:51:57.699Z,22.57
2023-03-12T16:54:24.054Z,22.57
2023-03-12T16:56:50.442Z,22.60
2023-03-12T16:59:16.809Z,22.68
2023-03-12T17:01:43.170Z,22.78
2023-03-12T17:04:09.513Z,22.81
2023-03-12T17:06:35.864Z,22.84
2023-03-12T17:09:02.223Z,22.91
2023-03-12T17:11:28.522Z,22.95
2023-03-12T17:13:55.267Z,23.03
2023-03-12T17:16:21.859Z,23.11
2023-03-12T17:18:48.381Z,23.17
2023-03-12T17:21:14.686Z,23.20
2023-03-12T17:23:41.056Z,23.23
2023-03-12T17:26:07.591Z,23.16
2023-03-12T17:28:34.013Z,23.19
2023-03-12T17:31:00.325Z,23.09
2023-03-12T17:33:26.684Z,22.98
2023-03-12T17:35:53.139Z,22.86
2023-03-12T17:38:19.750Z,22.73
2023-03-12T17:40:46.291Z,22.64
2023-03-12T17:43:12.705Z,22.53
2023-03-12T17:45:39.013Z,22.45
2023-03-12T17:48:05.492Z,22.35
2023-03-12T17:50:32.029Z,22.28
2023-03-12T17:52:58.490Z,22.20
2023-03-12T17:55:25.107Z,22.05
2023-03-12T17:57:51.454Z,22.03
2023-03-12T18:00:17.792Z,21.95
2023-03-12T18:02:44.161Z,21.85
2023-03-12T18:05:10.553Z,21.75
2023-03-12T18:07:36.935Z,21.64
2023-03-12T18:10:03.887Z,21.55
2023-03-12T18:12:30.706Z,21.47
2023-03-12T18:14:59.061Z,21.40
2023-03-12T18:17:25.409Z,21.32
2023-03-12T18:19:51.713Z,21.23
2023-03-12T18:22:18.071Z,21.15
2023-03-12T18:24:44.346Z,21.07
2023-03-12T18:27:10.614Z,20.99
2023-03-12T18:29:37.138Z,20.92
2023-03-12T18:32:03.614Z,20.85
2023-03-12T18:34:29.982Z,20.79
2023-03-12T18:36:56.277Z,20.73
2023-03-12T18:39:22.674Z,20.66
2023-03-12T18:41:49.307Z,20.59
2023-03-12T18:44:15.634Z,20.52
2023-03-12T18:46:42.073Z,20.45
2023-03-12T18:49:08.532Z,20.39
2023-03-12T18:51:34.856Z,20.35
2023-03-12T18:54:01.222Z,20.29
2023-03-12T18:56:27.548Z,20.24
2023-03-12T18:58:54.020Z,20.19
2023-03-12T19:01:20.405Z,20.15
2023-03-12T19:03:46.835Z,20.12
2023-03-12T19:06:16.301Z,20.09
2023-03-12T19:08:42.647Z,20.06
2023-03-12T19:11:08.929Z,20.02
2023-03-12T19:13:35.312Z,20.01
2023-03-12T19:16:01.819Z,19.99
2023-03-12T19:18:28.287Z,19.98
2023-03-12T19:20:54.675Z,19.97
2023-03-12T19:23:20.987Z,19.94
2023-03-12T19:25:47.305Z,19.93
2023-03-12T19:28:13.619Z,19.92
2023-03-12T19:30:40.054Z,19.89
2023-03-12T19:33:06.484Z,19.90
2023-03-12T19:35:33.263Z,19.94
2023-03-12T19:37:59.646Z,20.03
2023-03-12T19:40:26.078Z,20.17
2023-03-12T19:42:52.360Z,20.30
2023-03-12T19:45:18.662Z,20.40
2023-03-12T19:47:45.018Z,20.53
2023-03-12T19:50:11.335Z,20.65
2023-03-12T19:52:37.702Z,20.77
2023-03-12T19:55:05.627Z,20.91
2023-03-12T19:57:32.170Z,21.03
2023-03-12T19:59:58.498Z,21.16
2023-03-12T20:02:24.927Z,21.29
2023-03-12T20:04:51.366Z,21.37
2023-03-12T20:07:17.650Z,21.42
2023-03-12T20:09:43.911Z,21.43
2023-03-12T20:12:10.215Z,21.45
2023-03-12T20:14:36.534Z,21.47
2023-03-12T20:17:02.845Z,21.46
2023-03-12T20:19:29.226Z,21.46
2023-03-12T20:21:55.478Z,21.43
2023-03-12T20:24:21.723Z,21.40
2023-03-12T20:26:47.976Z,21.37
2023-03-12T20:29:14.242Z,21.33
2023-03-12T20:31:40.629Z,21.27
2023-03-12T20:34:06.934Z,21.20
2023-03-12T20:36:33.354Z,21.14
2023-03-12T20:38:59.798Z,21.08
2023-03-12T20:41:26.333Z,21.03
2023-03-12T20:43:52.768Z,20.96
2023-03-12T20:46:19.397Z,20.89
2023-03-12T20:48:45.724Z,20.81
2023-03-12T20:51:12.007Z,20.75
2023-03-12T20:53:38.299Z,20.71
2023-03-12T20:56:07.835Z,20.67
2023-03-12T20:58:34.339Z,20.61
2023-03-12T21:01:00.793Z,20.56
2023-03-12T21:03:27.173Z,20.50
2023-03-12T21:05:53.553Z,20.45
2023-03-12T21:08:19.898Z,20.40
2023-03-12T21:10:46.207Z,20.36
2023-03-12T21:13:12.655Z,20.32
2023-03-12T21:15:38.977Z,20.29
2023-03-12T21:18:05.445Z,20.24
2023-03-12T21:20:32.045Z,20.21
2023-03-12T21:22:58.405Z,20.17
2023-03-12T21:25:24.749Z,20.13
2023-03-12T21:27:51.921Z,20.12
2023-03-12T21:30:18.653Z,20.11
2023-03-12T21:32:45.241Z,20.12
2023-03-12T21:35:11.574Z,20.12
2023-03-12T21:37:37.953Z,20.13
2023-03-12T21:40:04.761Z,20.13
2023-03-12T21:42:31.077Z,20.13
2023-03-12T21:44:57.393Z,20.12
2023-03-12T21:47:23.732Z,20.12
2023-03-12T21:49:50.497Z,20.12
2023-03-12T21:52:16.898Z,20.10
2023-03-12T21:54:43.338Z,20.10
2023-03-12T21:57:09.705Z,20.03
2023-03-12T21:59:36.042Z,19.88
2023-03-12T22:02:02.354Z,19.75
2023-03-12T22:04:28.727Z,19.65
2023-03-12T22:06:55.123Z,19.54
2023-03-12T22:09:21.636Z,19.44
2023-03-12T22:11:47.893Z,19.35
2023-03-12T22:14:14.263Z,19.28
2023-03-12T22:16:40.513Z,19.18
2023-03-12T22:19:07.257Z,19.12
2023-03-12T22:21:33.586Z,19.04
2023-03-12T22:24:00.563Z,18.97
2023-03-12T22:26:26.911Z,18.92
2023-03-12T22:28:54.159Z,18.84
2023-03-12T22:31:20.687Z,18.78
2023-03-12T22:33:46.999Z,18.72
2023-03-12T22:36:13.302Z,18.67
2023-03-12T22:38:39.770Z,18.62
2023-03-12T22:41:06.132Z,18.55
2023-03-12T22:43:32.415Z,18.49
2023-03-12T22:45:58.739Z,18.43
2023-03-12T22:48:25.023Z,18.36
2023-03-12T22:50:51.521Z,18.32
2023-03-12T22:53:17.870Z,18.26
2023-03-12T22:55:44.179Z,18.20
2023-03-12T22:58:10.440Z,18.16
2023-03-12T23:00:36.798Z,18.10
2023-03-12T23:03:06.325Z,18.05
2023-03-12T23:05:32.863Z,18.01
2023-03-12T23:07:59.192Z,17.96
2023-03-12T23:10:25.502Z,17.92
2023-03-12T23:12:51.854Z,17.88
2023-03-12T23:15:19.807Z,17.83
2023-03-12T23:17:46.201Z,17.79
2023-03-12T23:20:12.503Z,17.75
2023-03-12T23:22:38.907Z,17.69
2023-03-12T23:25:05.232Z,17.65
2023-03-12T23:27:31.543Z,17.61
2023-03-12T23:29:57.883Z,17.57
2023-03-12T23:32:24.257Z,17.53
2023-03-12T23:34:50.598Z,17.50
2023-03-12T23:37:16.970Z,17.45
2023-03-12T23:39:53.903Z,17.41
2023-03-12T23:42:20.576Z,17.38
2023-03-12T23:44:47.137Z,17.34
2023-03-12T23:47:13.459Z,17.31
2023-03-12T23:49:39.875Z,17.27
2023-03-12T23:52:06.326Z,17.23
2023-03-12T23:54:32.608Z,17.21
2023-03-12T23:56:58.895Z,17.17
2023-03-12T23:59:25.189Z,17.14
